sensor_id;sensor_type;location;lat;lon;timestamp;temperature;humidity
28725;DHT22;43472;48.980;9.646;2023-09-30T00:03:57;17.20;99.90
28725;DHT22;43472;48.980;9.646;2023-09-30T00:08:59;17.20;99.90
28725;DHT22;43472;48.980;9.646;2023-09-30T00:14:01;17.10;99.90
28725;DHT22;43472;48.980;9.646;2023-09-30T00:19:04;17.20;99.90
28725;DHT22;43472;48.980;9.646;2023-09-30T00:24:06;17.20;99.90
28725;DHT22;43472;48.980;9.646;2023-09-30T00:29:09;16.90;99.90
28725;DHT22;43472;48.980;9.646;2023-09-30T00:34:12;17.10;99.90
28725;DHT22;43472;48.980;9.646;2023-09-30T00:39:14;17.10;99.90
28725;DHT22;43472;48.980;9.646;2023-09-30T00:44:16;17.10;99.90
28725;DHT22;43472;48.980;9.646;2023-09-30T00:49:19;16.90;99.90
28725;DHT22;43472;48.980;9.646;2023-09-30T00:54:22;16.80;99.90
28725;DHT22;43472;48.980;9.646;2023-09-30T00:59:26;16.80;99.90
28725;DHT22;43472;48.980;9.646;2023-09-30T01:04:28;16.70;99.90
28725;DHT22;43472;48.980;9.646;2023-09-30T01:09:31;16.50;99.90
28725;DHT22;43472;48.980;9.646;2023-09-30T01:14:35;16.50;99.90
28725;DHT22;43472;48.980;9.646;2023-09-30T01:19:40;16.40;99.90
28725;DHT22;43472;48.980;9.646;2023-09-30T01:24:44;16.30;99.90
28725;DHT22;43472;48.980;9.646;2023-09-30T01:29:49;16.40;99.90
28725;DHT22;43472;48.980;9.646;2023-09-30T01:34:52;16.10;99.90
28725;DHT22;43472;48.980;9.646;2023-09-30T01:39:54;16.20;99.90
28725;DHT22;43472;48.980;9.646;2023-09-30T01:44:56;16.10;99.90
28725;DHT22;43472;48.980;9.646;2023-09-30T01:50:01;16.10;99.90
28725;DHT22;43472;48.980;9.646;2023-09-30T01:55:03;16.00;99.90
28725;DHT22;43472;48.980;9.646;2023-09-30T02:00:05;16.00;99.90
28725;DHT22;43472;48.980;9.646;2023-09-30T02:05:12;15.90;99.90
28725;DHT22;43472;48.980;9.646;2023-09-30T02:10:16;15.90;99.90
28725;DHT22;43472;48.980;9.646;2023-09-30T02:15:18;15.90;99.90
28725;DHT22;43472;48.980;9.646;2023-09-30T02:20:21;16.00;99.90
28725;DHT22;43472;48.980;9.646;2023-09-30T02:25:27;15.80;99.90
28725;DHT22;43472;48.980;9.646;2023-09-30T02:30:29;15.70;99.90
28725;DHT22;43472;48.980;9.646;2023-09-30T02:35:32;15.70;99.90
28725;DHT22;43472;48.980;9.646;2023-09-30T02:40:34;15.80;99.90
28725;DHT22;43472;48.980;9.646;2023-09-30T02:45:37;15.90;99.90
28725;DHT22;43472;48.980;9.646;2023-09-30T02:50:42;15.90;99.90
28725;DHT22;43472;48.980;9.646;2023-09-30T02:55:46;15.70;99.90
28725;DHT22;43472;48.980;9.646;2023-09-30T03:00:49;15.70;99.90
28725;DHT22;43472;48.980;9.646;2023-09-30T03:05:52;15.50;99.90
28725;DHT22;43472;48.980;9.646;2023-09-30T03:10:54;15.30;99.90
28725;DHT22;43472;48.980;9.646;2023-09-30T03:15:57;15.10;99.90
28725;DHT22;43472;48.980;9.646;2023-09-30T03:21:01;15.20;99.90
28725;DHT22;43472;48.980;9.646;2023-09-30T03:26:03;14.90;99.90
28725;DHT22;43472;48.980;9.646;2023-09-30T03:31:05;14.90;99.90
28725;DHT22;43472;48.980;9.646;2023-09-30T03:36:08;15.00;99.90
28725;DHT22;43472;48.980;9.646;2023-09-30T03:41:11;15.10;99.90
28725;DHT22;43472;48.980;9.646;2023-09-30T03:46:15;14.90;99.90
28725;DHT22;43472;48.980;9.646;2023-09-30T03:51:18;14.90;99.90
28725;DHT22;43472;48.980;9.646;2023-09-30T03:56:22;15.00;99.90
28725;DHT22;43472;48.980;9.646;2023-09-30T04:01:24;14.90;99.90
28725;DHT22;43472;48.980;9.646;2023-09-30T04:06:29;14.80;99.90
28725;DHT22;43472;48.980;9.646;2023-09-30T04:11:31;14.70;99.90
28725;DHT22;43472;48.980;9.646;2023-09-30T04:16:34;14.60;99.90
28725;DHT22;43472;48.980;9.646;2023-09-30T04:21:36;14.60;99.90
28725;DHT22;43472;48.980;9.646;2023-09-30T04:26:40;14.30;99.90
28725;DHT22;43472;48.980;9.646;2023-09-30T04:31:43;14.20;99.90
28725;DHT22;43472;48.980;9.646;2023-09-30T04:36:46;14.40;99.90
28725;DHT22;43472;48.980;9.646;2023-09-30T04:41:48;15.60;99.90
28725;DHT22;43472;48.980;9.646;2023-09-30T04:46:50;14.90;99.90
28725;DHT22;43472;48.980;9.646;2023-09-30T04:51:52;14.10;99.90
28725;DHT22;43472;48.980;9.646;2023-09-30T04:56:54;13.80;99.90
28725;DHT22;43472;48.980;9.646;2023-09-30T05:02:00;13.70;99.90
28725;DHT22;43472;48.980;9.646;2023-09-30T05:07:02;13.70;99.90
28725;DHT22;43472;48.980;9.646;2023-09-30T05:12:05;13.60;99.90
28725;DHT22;43472;48.980;9.646;2023-09-30T05:17:08;13.60;99.90
28725;DHT22;43472;48.980;9.646;2023-09-30T05:22:11;13.60;99.90
28725;DHT22;43472;48.980;9.646;2023-09-30T05:27:13;13.50;99.90
28725;DHT22;43472;48.980;9.646;2023-09-30T05:32:15;13.50;99.90
28725;DHT22;43472;48.980;9.646;2023-09-30T05:37:17;13.40;99.90
28725;DHT22;43472;48.980;9.646;2023-09-30T05:42:19;14.00;99.90
28725;DHT22;43472;48.980;9.646;2023-09-30T05:47:22;13.60;99.90
28725;DHT22;43472;48.980;9.646;2023-09-30T05:52:25;13.50;99.90
28725;DHT22;43472;48.980;9.646;2023-09-30T06:02:32;13.70;99.90
28725;DHT22;43472;48.980;9.646;2023-09-30T06:07:38;14.20;99.90
28725;DHT22;43472;48.980;9.646;2023-09-30T06:12:40;13.90;99.90
28725;DHT22;43472;48.980;9.646;2023-09-30T06:17:45;13.90;99.90
28725;DHT22;43472;48.980;9.646;2023-09-30T06:22:48;14.40;99.90
28725;DHT22;43472;48.980;9.646;2023-09-30T06:27:55;14.20;99.90
28725;DHT22;43472;48.980;9.646;2023-09-30T06:32:59;14.20;99.90
28725;DHT22;43472;48.980;9.646;2023-09-30T06:38:03;14.00;99.90
28725;DHT22;43472;48.980;9.646;2023-09-30T06:43:05;14.70;99.90
28725;DHT22;43472;48.980;9.646;2023-09-30T06:48:13;14.40;99.90
28725;DHT22;43472;48.980;9.646;2023-09-30T06:53:18;14.30;99.90
28725;DHT22;43472;48.980;9.646;2023-09-30T06:58:20;14.30;99.90
28725;DHT22;43472;48.980;9.646;2023-09-30T07:03:23;14.60;99.90
28725;DHT22;43472;48.980;9.646;2023-09-30T07:08:28;14.80;99.90
28725;DHT22;43472;48.980;9.646;2023-09-30T07:13:31;14.60;99.90
28725;DHT22;43472;48.980;9.646;2023-09-30T07:18:35;14.80;99.90
28725;DHT22;43472;48.980;9.646;2023-09-30T07:23:37;14.80;99.90
28725;DHT22;43472;48.980;9.646;2023-09-30T07:28:40;15.00;99.90
28725;DHT22;43472;48.980;9.646;2023-09-30T07:33:43;15.00;99.90
28725;DHT22;43472;48.980;9.646;2023-09-30T07:38:45;15.00;99.90
28725;DHT22;43472;48.980;9.646;2023-09-30T07:43:48;14.90;99.90
28725;DHT22;43472;48.980;9.646;2023-09-30T07:48:52;15.20;99.90
28725;DHT22;43472;48.980;9.646;2023-09-30T07:53:54;15.60;99.90
28725;DHT22;43472;48.980;9.646;2023-09-30T07:58:56;15.90;99.90
28725;DHT22;43472;48.980;9.646;2023-09-30T08:03:58;16.10;99.90
28725;DHT22;43472;48.980;9.646;2023-09-30T08:09:02;16.40;99.90
28725;DHT22;43472;48.980;9.646;2023-09-30T08:14:05;16.60;99.90
28725;DHT22;43472;48.980;9.646;2023-09-30T08:19:09;17.20;99.90
28725;DHT22;43472;48.980;9.646;2023-09-30T08:24:11;16.90;99.90
28725;DHT22;43472;48.980;9.646;2023-09-30T08:29:13;17.30;99.90
28725;DHT22;43472;48.980;9.646;2023-09-30T08:34:15;17.90;99.90
28725;DHT22;43472;48.980;9.646;2023-09-30T08:39:18;18.10;99.90
28725;DHT22;43472;48.980;9.646;2023-09-30T08:44:20;18.30;99.90
28725;DHT22;43472;48.980;9.646;2023-09-30T08:49:23;18.60;99.90
28725;DHT22;43472;48.980;9.646;2023-09-30T08:54:26;18.60;99.90
28725;DHT22;43472;48.980;9.646;2023-09-30T08:59:29;18.70;99.90
28725;DHT22;43472;48.980;9.646;2023-09-30T09:04:31;18.20;99.90
28725;DHT22;43472;48.980;9.646;2023-09-30T09:09:36;18.50;99.90
28725;DHT22;43472;48.980;9.646;2023-09-30T09:14:39;19.20;99.90
28725;DHT22;43472;48.980;9.646;2023-09-30T09:19:41;19.20;99.90
28725;DHT22;43472;48.980;9.646;2023-09-30T09:24:44;19.70;99.90
28725;DHT22;43472;48.980;9.646;2023-09-30T09:29:48;19.30;99.90
28725;DHT22;43472;48.980;9.646;2023-09-30T09:35:01;19.80;99.90
28725;DHT22;43472;48.980;9.646;2023-09-30T09:40:04;19.40;99.90
28725;DHT22;43472;48.980;9.646;2023-09-30T09:45:06;20.00;99.90
28725;DHT22;43472;48.980;9.646;2023-09-30T09:50:12;20.50;99.90
28725;DHT22;43472;48.980;9.646;2023-09-30T09:55:20;20.70;99.90
28725;DHT22;43472;48.980;9.646;2023-09-30T10:00:25;20.50;99.90
28725;DHT22;43472;48.980;9.646;2023-09-30T10:05:29;19.80;99.90
28725;DHT22;43472;48.980;9.646;2023-09-30T10:10:36;20.80;99.90
28725;DHT22;43472;48.980;9.646;2023-09-30T10:15:39;19.80;99.90
28725;DHT22;43472;48.980;9.646;2023-09-30T10:20:47;20.40;99.90
28725;DHT22;43472;48.980;9.646;2023-09-30T10:26:13;20.70;99.90
28725;DHT22;43472;48.980;9.646;2023-09-30T10:31:19;20.40;99.90
28725;DHT22;43472;48.980;9.646;2023-09-30T10:36:29;20.30;99.90
28725;DHT22;43472;48.980;9.646;2023-09-30T10:46:52;20.30;99.90
28725;DHT22;43472;48.980;9.646;2023-09-30T10:51:56;20.90;99.90
28725;DHT22;43472;48.980;9.646;2023-09-30T10:57:00;21.20;99.90
28725;DHT22;43472;48.980;9.646;2023-09-30T11:02:02;21.00;99.90
28725;DHT22;43472;48.980;9.646;2023-09-30T11:07:06;20.70;99.90
28725;DHT22;43472;48.980;9.646;2023-09-30T11:12:13;21.20;99.90
28725;DHT22;43472;48.980;9.646;2023-09-30T11:17:22;20.90;99.90
28725;DHT22;43472;48.980;9.646;2023-09-30T11:22:24;20.90;99.90
28725;DHT22;43472;48.980;9.646;2023-09-30T11:27:29;21.20;99.90
28725;DHT22;43472;48.980;9.646;2023-09-30T11:32:33;21.40;99.90
28725;DHT22;43472;48.980;9.646;2023-09-30T11:37:35;21.60;99.90
28725;DHT22;43472;48.980;9.646;2023-09-30T11:42:37;21.90;99.90
28725;DHT22;43472;48.980;9.646;2023-09-30T11:47:40;21.90;99.90
28725;DHT22;43472;48.980;9.646;2023-09-30T11:52:44;22.70;99.90
28725;DHT22;43472;48.980;9.646;2023-09-30T11:57:49;23.50;99.90
28725;DHT22;43472;48.980;9.646;2023-09-30T12:02:53;22.80;99.90
28725;DHT22;43472;48.980;9.646;2023-09-30T12:07:56;22.30;99.90
28725;DHT22;43472;48.980;9.646;2023-09-30T12:12:58;22.60;99.90
28725;DHT22;43472;48.980;9.646;2023-09-30T12:18:03;24.60;99.90
28725;DHT22;43472;48.980;9.646;2023-09-30T12:23:08;21.60;99.90
28725;DHT22;43472;48.980;9.646;2023-09-30T12:28:10;21.20;99.90
28725;DHT22;43472;48.980;9.646;2023-09-30T12:33:12;21.10;99.90
28725;DHT22;43472;48.980;9.646;2023-09-30T12:38:14;20.60;99.90
28725;DHT22;43472;48.980;9.646;2023-09-30T12:43:18;20.60;99.90
28725;DHT22;43472;48.980;9.646;2023-09-30T12:48:22;20.60;99.90
28725;DHT22;43472;48.980;9.646;2023-09-30T12:53:24;21.00;99.90
28725;DHT22;43472;48.980;9.646;2023-09-30T12:58:26;21.60;99.90
28725;DHT22;43472;48.980;9.646;2023-09-30T13:03:32;21.80;99.90
28725;DHT22;43472;48.980;9.646;2023-09-30T13:08:34;22.50;99.90
28725;DHT22;43472;48.980;9.646;2023-09-30T13:13:38;22.80;99.90
28725;DHT22;43472;48.980;9.646;2023-09-30T13:18:40;23.10;99.90
28725;DHT22;43472;48.980;9.646;2023-09-30T13:23:44;23.70;99.90
28725;DHT22;43472;48.980;9.646;2023-09-30T13:28:47;23.30;99.90
28725;DHT22;43472;48.980;9.646;2023-09-30T13:33:49;24.10;99.90
28725;DHT22;43472;48.980;9.646;2023-09-30T13:38:51;24.10;99.90
28725;DHT22;43472;48.980;9.646;2023-09-30T13:43:54;24.60;99.90
28725;DHT22;43472;48.980;9.646;2023-09-30T13:48:58;24.70;99.90
28725;DHT22;43472;48.980;9.646;2023-09-30T13:54:00;25.30;99.90
28725;DHT22;43472;48.980;9.646;2023-09-30T13:59:02;24.60;99.90
28725;DHT22;43472;48.980;9.646;2023-09-30T14:04:05;23.70;99.90
28725;DHT22;43472;48.980;9.646;2023-09-30T14:09:08;24.40;99.90
28725;DHT22;43472;48.980;9.646;2023-09-30T14:14:36;24.60;99.90
28725;DHT22;43472;48.980;9.646;2023-09-30T14:19:38;24.20;99.90
28725;DHT22;43472;48.980;9.646;2023-09-30T14:24:40;24.50;99.90
28725;DHT22;43472;48.980;9.646;2023-09-30T14:29:42;24.10;99.90
28725;DHT22;43472;48.980;9.646;2023-09-30T14:34:45;23.20;99.90
28725;DHT22;43472;48.980;9.646;2023-09-30T14:39:47;23.10;99.90
28725;DHT22;43472;48.980;9.646;2023-09-30T14:44:49;22.90;99.90
28725;DHT22;43472;48.980;9.646;2023-09-30T14:49:52;22.20;99.90
28725;DHT22;43472;48.980;9.646;2023-09-30T14:54:55;22.00;99.90
28725;DHT22;43472;48.980;9.646;2023-09-30T14:59:58;21.40;99.90
28725;DHT22;43472;48.980;9.646;2023-09-30T15:05:01;21.50;99.90
28725;DHT22;43472;48.980;9.646;2023-09-30T15:10:04;21.40;99.90
28725;DHT22;43472;48.980;9.646;2023-09-30T15:15:06;21.60;99.90
28725;DHT22;43472;48.980;9.646;2023-09-30T15:20:10;21.50;99.90
28725;DHT22;43472;48.980;9.646;2023-09-30T15:25:12;21.60;99.90
28725;DHT22;43472;48.980;9.646;2023-09-30T15:30:15;21.20;99.90
28725;DHT22;43472;48.980;9.646;2023-09-30T15:35:16;21.10;99.90
28725;DHT22;43472;48.980;9.646;2023-09-30T15:40:18;20.80;99.90
28725;DHT22;43472;48.980;9.646;2023-09-30T15:45:21;20.50;99.90
28725;DHT22;43472;48.980;9.646;2023-09-30T15:50:23;20.30;99.90
28725;DHT22;43472;48.980;9.646;2023-09-30T15:55:27;20.20;99.90
28725;DHT22;43472;48.980;9.646;2023-09-30T16:00:31;20.00;99.90
28725;DHT22;43472;48.980;9.646;2023-09-30T16:05:35;19.80;99.90
28725;DHT22;43472;48.980;9.646;2023-09-30T16:10:39;19.40;99.90
28725;DHT22;43472;48.980;9.646;2023-09-30T16:15:45;19.30;99.90
28725;DHT22;43472;48.980;9.646;2023-09-30T16:20:49;19.00;99.90
28725;DHT22;43472;48.980;9.646;2023-09-30T16:25:52;18.70;99.90
28725;DHT22;43472;48.980;9.646;2023-09-30T16:30:54;18.70;99.90
28725;DHT22;43472;48.980;9.646;2023-09-30T16:35:57;18.30;99.90
28725;DHT22;43472;48.980;9.646;2023-09-30T16:40:58;18.10;99.90
28725;DHT22;43472;48.980;9.646;2023-09-30T16:46:01;18.00;99.90
28725;DHT22;43472;48.980;9.646;2023-09-30T16:51:08;17.70;99.90
28725;DHT22;43472;48.980;9.646;2023-09-30T16:56:11;17.40;99.90
28725;DHT22;43472;48.980;9.646;2023-09-30T17:01:13;17.20;99.90
28725;DHT22;43472;48.980;9.646;2023-09-30T17:06:16;17.10;99.90
28725;DHT22;43472;48.980;9.646;2023-09-30T17:11:18;17.00;99.90
28725;DHT22;43472;48.980;9.646;2023-09-30T17:16:24;16.90;99.90
28725;DHT22;43472;48.980;9.646;2023-09-30T17:21:26;16.60;99.90
28725;DHT22;43472;48.980;9.646;2023-09-30T17:26:28;16.50;99.90
28725;DHT22;43472;48.980;9.646;2023-09-30T17:31:32;16.30;99.90
28725;DHT22;43472;48.980;9.646;2023-09-30T17:36:35;16.10;99.90
28725;DHT22;43472;48.980;9.646;2023-09-30T17:41:37;16.00;99.90
28725;DHT22;43472;48.980;9.646;2023-09-30T17:46:40;16.00;99.90
28725;DHT22;43472;48.980;9.646;2023-09-30T17:51:42;15.90;99.90
28725;DHT22;43472;48.980;9.646;2023-09-30T17:56:48;15.70;99.90
28725;DHT22;43472;48.980;9.646;2023-09-30T18:01:50;15.70;99.90
28725;DHT22;43472;48.980;9.646;2023-09-30T18:06:52;15.60;99.90
28725;DHT22;43472;48.980;9.646;2023-09-30T18:11:55;15.50;99.90
28725;DHT22;43472;48.980;9.646;2023-09-30T18:16:58;15.10;99.90
28725;DHT22;43472;48.980;9.646;2023-09-30T18:22:00;14.80;99.90
28725;DHT22;43472;48.980;9.646;2023-09-30T18:27:02;15.20;99.90
28725;DHT22;43472;48.980;9.646;2023-09-30T18:32:04;15.00;99.90
28725;DHT22;43472;48.980;9.646;2023-09-30T18:37:07;14.70;99.90
28725;DHT22;43472;48.980;9.646;2023-09-30T18:42:10;15.00;99.90
28725;DHT22;43472;48.980;9.646;2023-09-30T18:47:12;14.70;99.90
28725;DHT22;43472;48.980;9.646;2023-09-30T18:52:14;14.70;99.90
28725;DHT22;43472;48.980;9.646;2023-09-30T18:57:20;15.00;99.90
28725;DHT22;43472;48.980;9.646;2023-09-30T19:02:22;14.40;99.90
28725;DHT22;43472;48.980;9.646;2023-09-30T19:07:27;15.60;99.90
28725;DHT22;43472;48.980;9.646;2023-09-30T19:12:29;14.30;99.90
28725;DHT22;43472;48.980;9.646;2023-09-30T19:17:31;14.10;99.90
28725;DHT22;43472;48.980;9.646;2023-09-30T19:22:34;14.10;99.90
28725;DHT22;43472;48.980;9.646;2023-09-30T19:27:36;14.20;99.90
28725;DHT22;43472;48.980;9.646;2023-09-30T19:37:43;13.70;99.90
28725;DHT22;43472;48.980;9.646;2023-09-30T19:47:52;13.30;99.90
28725;DHT22;43472;48.980;9.646;2023-09-30T19:52:55;13.20;99.90
28725;DHT22;43472;48.980;9.646;2023-09-30T20:08:05;13.70;99.90
28725;DHT22;43472;48.980;9.646;2023-09-30T20:13:07;13.60;99.90
28725;DHT22;43472;48.980;9.646;2023-09-30T20:23:15;13.40;99.90
28725;DHT22;43472;48.980;9.646;2023-09-30T20:28:17;12.90;99.90
28725;DHT22;43472;48.980;9.646;2023-09-30T20:33:21;9.40;99.90
28725;DHT22;43472;48.980;9.646;2023-09-30T20:43:25;12.80;99.90
28725;DHT22;43472;48.980;9.646;2023-09-30T20:53:32;13.00;99.90
28725;DHT22;43472;48.980;9.646;2023-09-30T20:58:34;13.70;99.90
28725;DHT22;43472;48.980;9.646;2023-09-30T21:03:36;13.10;99.90
28725;DHT22;43472;48.980;9.646;2023-09-30T21:08:39;12.80;99.90
28725;DHT22;43472;48.980;9.646;2023-09-30T21:13:45;12.70;99.90
28725;DHT22;43472;48.980;9.646;2023-09-30T21:18:49;12.60;99.90
28725;DHT22;43472;48.980;9.646;2023-09-30T21:23:51;14.70;99.90
28725;DHT22;43472;48.980;9.646;2023-09-30T21:28:54;12.20;99.90
28725;DHT22;43472;48.980;9.646;2023-09-30T21:33:56;12.20;99.90
28725;DHT22;43472;48.980;9.646;2023-09-30T21:39:00;12.70;99.90
28725;DHT22;43472;48.980;9.646;2023-09-30T21:44:05;12.00;99.90
28725;DHT22;43472;48.980;9.646;2023-09-30T21:49:08;12.00;99.90
28725;DHT22;43472;48.980;9.646;2023-09-30T21:54:10;12.10;99.90
28725;DHT22;43472;48.980;9.646;2023-09-30T21:59:12;12.10;99.90
28725;DHT22;43472;48.980;9.646;2023-09-30T22:09:19;11.90;99.90
28725;DHT22;43472;48.980;9.646;2023-09-30T22:14:21;11.60;99.90
28725;DHT22;43472;48.980;9.646;2023-09-30T22:19:25;12.00;99.90
28725;DHT22;43472;48.980;9.646;2023-09-30T22:24:27;11.70;99.90
28725;DHT22;43472;48.980;9.646;2023-09-30T22:29:29;11.70;99.90
28725;DHT22;43472;48.980;9.646;2023-09-30T22:34:31;13.40;99.90
28725;DHT22;43472;48.980;9.646;2023-09-30T22:39:37;11.80;99.90
28725;DHT22;43472;48.980;9.646;2023-09-30T22:49:41;11.70;99.90
28725;DHT22;43472;48.980;9.646;2023-09-30T22:54:43;11.80;99.90
28725;DHT22;43472;48.980;9.646;2023-09-30T22:59:45;11.70;99.90
28725;DHT22;43472;48.980;9.646;2023-09-30T23:04:48;11.50;99.90
28725;DHT22;43472;48.980;9.646;2023-09-30T23:09:50;11.20;99.90
28725;DHT22;43472;48.980;9.646;2023-09-30T23:14:54;11.20;99.90
28725;DHT22;43472;48.980;9.646;2023-09-30T23:19:58;11.30;99.90
28725;DHT22;43472;48.980;9.646;2023-09-30T23:25:01;11.30;99.90
28725;DHT22;43472;48.980;9.646;2023-09-30T23:30:08;11.20;99.90
28725;DHT22;43472;48.980;9.646;2023-09-30T23:35:18;11.10;99.90
28725;DHT22;43472;48.980;9.646;2023-09-30T23:40:22;11.00;99.90
28725;DHT22;43472;48.980;9.646;2023-09-30T23:45:24;10.80;99.90
28725;DHT22;43472;48.980;9.646;2023-09-30T23:50:33;11.10;99.90
28725;DHT22;43472;48.980;9.646;2023-09-30T23:55:36;11.00;99.90
